Time;durP1;ratioP1;P1;durP2;ratioP2;P2;SDS_P1;SDS_P2;PMS_P1;PMS_P2;Temp;Humidity;BMP_temperature;BMP_pressure;BME280_temperature;BME280_humidity;BME280_pressure;Samples;Min_cycle;Max_cycle;Signal;HPM_P1;HPM_P2
2023/04/14 00:01:48;;;;;;;12.30;4.93;;;4.60;1.00;;;;;;6187265;23;20039;-87
2023/04/14 00:04:36;;;;;;;15.15;5.47;;;4.60;1.00;;;;;;6188456;23;20025;-89
2023/04/14 00:07:24;;;;;;;12.55;5.57;;;4.60;1.00;;;;;;6187092;23;20032;-88
2023/04/14 00:10:12;;;;;;;13.50;5.43;;;4.60;1.00;;;;;;6187000;23;20120;-88
2023/04/14 00:13:00;;;;;;;12.18;5.43;;;4.60;99.90;;;;;;6186717;23;20044;-88
2023/04/14 00:15:48;;;;;;;10.88;4.78;;;4.60;99.90;;;;;;6186758;23;20032;-87
2023/04/14 00:18:38;;;;;;;14.98;4.32;;;4.50;99.90;;;;;;6186098;23;20028;-87
2023/04/14 00:21:25;;;;;;;15.63;4.72;;;4.50;3.20;;;;;;6187843;23;20025;-87
2023/04/14 00:24:13;;;;;;;12.77;4.03;;;4.60;1.00;;;;;;6186225;23;20052;-89
2023/04/14 00:27:00;;;;;;;16.35;4.57;;;4.60;99.90;;;;;;6186452;23;20437;-88
2023/04/14 00:29:48;;;;;;;10.43;4.32;;;4.60;99.90;;;;;;6188415;23;20048;-89
2023/04/14 00:32:35;;;;;;;16.73;4.07;;;4.60;95.90;;;;;;6187454;23;20032;-88
2023/04/14 00:35:23;;;;;;;16.65;3.58;;;4.70;1.00;;;;;;6188374;23;20052;-87
2023/04/14 00:38:12;;;;;;;14.63;3.65;;;4.70;1.00;;;;;;6194207;23;20040;-86
2023/04/14 00:41:00;;;;;;;15.40;3.40;;;4.70;99.90;;;;;;6193985;23;20037;-88
2023/04/14 00:43:47;;;;;;;17.30;3.80;;;4.60;99.90;;;;;;6193458;23;20040;-86
2023/04/14 00:46:35;;;;;;;13.18;3.35;;;4.60;99.90;;;;;;6194125;23;20021;-87
2023/04/14 00:49:25;;;;;;;10.40;3.63;;;4.60;56.50;;;;;;6195456;23;20075;-87
2023/04/14 00:52:15;;;;;;;11.35;2.95;;;4.60;1.00;;;;;;6187966;23;20029;-88
2023/04/14 00:55:04;;;;;;;17.40;2.88;;;4.60;1.00;;;;;;6187026;23;20027;-88
2023/04/14 00:57:55;;;;;;;16.95;3.42;;;4.50;1.00;;;;;;6188338;23;20033;-88
2023/04/14 01:00:43;;;;;;;12.35;3.20;;;4.50;1.00;;;;;;6188384;23;20167;-87
2023/04/14 01:03:30;;;;;;;10.98;2.95;;;4.50;99.90;;;;;;6189095;23;20021;-88
2023/04/14 01:06:18;;;;;;;12.98;3.17;;;4.50;99.90;;;;;;6189239;23;20025;-88
2023/04/14 01:09:05;;;;;;;13.43;2.90;;;4.50;99.90;;;;;;6187342;23;20025;-87
2023/04/14 01:12:02;;;;;;;13.40;2.88;;;4.50;99.90;;;;;;6189396;23;20029;-87
2023/04/14 01:15:19;;;;;;;11.75;3.38;;;4.40;99.90;;;;;;6188041;23;20029;-88
2023/04/14 01:18:10;;;;;;;14.30;3.05;;;4.40;99.90;;;;;;6181234;23;20025;-87
2023/04/14 01:21:06;;;;;;;13.77;3.05;;;4.40;99.90;;;;;;6188692;23;20029;-88
2023/04/14 01:24:22;;;;;;;13.90;3.15;;;4.40;99.90;;;;;;6187775;23;20109;-88
2023/04/14 01:27:39;;;;;;;12.70;3.25;;;4.30;99.90;;;;;;6189363;23;20029;-88
2023/04/14 01:31:01;;;;;;;16.33;3.22;;;4.20;99.90;;;;;;6188155;23;20421;-89
2023/04/14 01:34:02;;;;;;;7.25;3.15;;;4.10;99.90;;;;;;6190298;23;20033;-87
2023/04/14 01:37:29;;;;;;;13.48;3.05;;;4.00;99.90;;;;;;6188670;23;20051;-89
2023/04/14 01:40:19;;;;;;;12.15;3.22;;;4.00;99.90;;;;;;6193720;23;20372;-87
2023/04/14 01:43:11;;;;;;;15.18;3.28;;;4.00;99.90;;;;;;6206436;23;20052;-88
2023/04/14 01:46:08;;;;;;;8.40;2.60;;;4.00;99.90;;;;;;6189517;23;20025;-89
2023/04/14 01:48:56;;;;;;;16.13;3.92;;;4.10;99.90;;;;;;6189324;23;20472;-88
2023/04/14 01:51:44;;;;;;;15.95;3.63;;;4.10;99.90;;;;;;6187656;23;20024;-86
2023/04/14 01:54:33;;;;;;;10.27;3.15;;;4.00;99.90;;;;;;6207069;23;20447;-88
2023/04/14 01:57:25;;;;;;;20.83;4.25;;;3.90;99.90;;;;;;6189310;23;20334;-87
2023/04/14 02:00:15;;;;;;;14.70;3.55;;;3.90;99.90;;;;;;6189713;23;20025;-87
2023/04/14 02:03:05;;;;;;;14.82;4.07;;;3.80;99.90;;;;;;6187825;23;20021;-87
2023/04/14 02:05:54;;;;;;;10.40;2.55;;;3.70;99.90;;;;;;6188147;23;20021;-88
2023/04/14 02:08:42;;;;;;;11.65;3.45;;;3.70;99.90;;;;;;6186344;23;20037;-88
2023/04/14 02:11:33;;;;;;;13.38;3.70;;;3.60;99.90;;;;;;6188798;23;20025;-86
2023/04/14 02:14:25;;;;;;;10.27;3.17;;;3.50;99.90;;;;;;6188119;23;20029;-87
2023/04/14 02:17:13;;;;;;;17.95;3.80;;;3.40;99.90;;;;;;6188016;23;20341;-88
2023/04/14 02:20:01;;;;;;;14.10;3.28;;;3.30;1.00;;;;;;6206666;23;20028;-88
2023/04/14 02:22:48;;;;;;;13.85;3.50;;;3.20;1.00;;;;;;6186306;23;20033;-88
2023/04/14 02:25:36;;;;;;;10.32;3.58;;;3.10;1.00;;;;;;6188585;23;20036;-89
2023/04/14 02:28:31;;;;;;;14.07;3.63;;;3.10;1.00;;;;;;6193600;23;20025;-88
2023/04/14 02:31:24;;;;;;;18.63;3.97;;;3.10;1.00;;;;;;6189329;23;20021;-89
2023/04/14 02:34:13;;;;;;;10.75;3.10;;;3.00;1.00;;;;;;6188388;23;20313;-88
2023/04/14 02:37:06;;;;;;;18.55;4.05;;;3.00;1.00;;;;;;6189518;23;20025;-88
2023/04/14 02:39:59;;;;;;;10.65;3.28;;;2.80;9.30;;;;;;6189305;23;20808;-88
2023/04/14 02:42:55;;;;;;;15.82;3.92;;;2.70;37.30;;;;;;6189027;23;20029;-88
2023/04/14 02:45:47;;;;;;;20.38;3.85;;;2.50;90.60;;;;;;6187834;23;20152;-88
2023/04/14 02:48:36;;;;;;;;;;;2.40;99.90;;;;;;6191080;23;20092;-90
2023/04/14 02:51:26;;;;;;;18.15;3.92;;;2.40;99.90;;;;;;6199514;23;19916;-89
2023/04/14 02:54:15;;;;;;;16.95;4.68;;;2.30;99.90;;;;;;6199355;23;20091;-87
2023/04/14 02:57:03;;;;;;;15.85;3.65;;;2.40;1.00;;;;;;6194018;23;20087;-89
2023/04/14 02:59:51;;;;;;;10.45;3.65;;;2.30;1.00;;;;;;6190269;23;20040;-90
2023/04/14 03:02:40;;;;;;;13.13;3.45;;;2.30;1.00;;;;;;6191301;23;20025;-88
2023/04/14 03:05:29;;;;;;;15.63;4.57;;;2.20;1.00;;;;;;6191251;23;20301;-87
2023/04/14 03:08:18;;;;;;;13.40;3.53;;;2.10;1.00;;;;;;6192080;23;20029;-88
2023/04/14 03:11:08;;;;;;;16.83;4.28;;;2.00;1.00;;;;;;6188411;23;20032;-88
2023/04/14 03:13:58;;;;;;;18.65;4.35;;;1.90;1.00;;;;;;6187140;23;20029;-88
2023/04/14 03:16:47;;;;;;;12.98;4.47;;;1.80;99.90;;;;;;6188442;23;20029;-90
2023/04/14 03:19:35;;;;;;;19.83;3.65;;;1.80;99.90;;;;;;6194540;23;20033;-89
2023/04/14 03:22:27;;;;;;;17.45;3.80;;;1.80;99.90;;;;;;6206732;23;20032;-89
2023/04/14 03:25:14;;;;;;;13.38;4.05;;;1.70;1.00;;;;;;6188143;23;20024;-89
2023/04/14 03:28:04;;;;;;;15.40;3.88;;;1.60;1.00;;;;;;6186718;23;20096;-88
2023/04/14 03:30:55;;;;;;;8.27;3.67;;;1.50;99.90;;;;;;6187581;23;20124;-89
2023/04/14 03:33:45;;;;;;;20.08;4.60;;;1.50;1.00;;;;;;6187538;23;20025;-89
2023/04/14 03:36:37;;;;;;;23.60;4.20;;;1.50;99.90;;;;;;6185505;23;20039;-88
2023/04/14 03:39:26;;;;;;;16.53;3.97;;;1.50;1.00;;;;;;6206538;23;20091;-88
2023/04/14 03:42:15;;;;;;;18.83;4.68;;;1.40;1.00;;;;;;6188185;23;20251;-88
2023/04/14 03:45:03;;;;;;;17.70;4.15;;;1.30;1.00;;;;;;6186691;23;20052;-88
2023/04/14 03:47:56;;;;;;;14.95;4.35;;;1.10;42.90;;;;;;6186977;23;20028;-88
2023/04/14 03:50:50;;;;;;;15.43;3.78;;;1.00;99.90;;;;;;6186368;23;20021;-88
2023/04/14 03:53:40;;;;;;;;;;;0.90;32.30;;;;;;6189062;23;20040;-88
2023/04/14 03:56:29;;;;;;;26.67;4.82;;;0.80;99.90;;;;;;6187848;23;19948;-89
2023/04/14 03:59:19;;;;;;;20.92;3.70;;;0.90;99.90;;;;;;6186934;23;20036;-88
2023/04/14 04:02:08;;;;;;;19.75;5.03;;;0.90;74.10;;;;;;6186469;23;20087;-89
2023/04/14 04:04:57;;;;;;;21.58;4.57;;;1.00;99.90;;;;;;6186448;23;20021;-88
2023/04/14 04:07:45;;;;;;;21.27;4.32;;;1.00;99.90;;;;;;6198282;23;20040;-87
2023/04/14 04:10:36;;;;;;;13.68;3.92;;;1.00;99.90;;;;;;6190703;23;20024;-88
2023/04/14 04:13:25;;;;;;;28.02;5.40;;;1.00;1.00;;;;;;6219428;23;20421;-88
2023/04/14 04:16:13;;;;;;;23.60;5.15;;;1.20;1.00;;;;;;6218097;23;20025;-86
2023/04/14 04:19:05;;;;;;;18.20;4.03;;;1.30;1.00;;;;;;6199994;23;20048;-90
2023/04/14 04:21:58;;;;;;;14.77;3.63;;;1.30;99.90;;;;;;6228437;23;20013;-85
2023/04/14 04:24:46;;;;;;;;;;;1.20;99.90;;;;;;6211600;23;20094;-85
2023/04/14 04:27:36;;;;;;;21.52;4.60;;;1.10;99.90;;;;;;6210901;23;19956;-82
2023/04/14 04:30:24;;;;;;;19.92;4.72;;;1.20;1.00;;;;;;6203987;23;20021;-90
2023/04/14 04:33:12;;;;;;;20.73;5.03;;;1.20;1.00;;;;;;6199659;23;20056;-88
2023/04/14 04:36:00;;;;;;;17.42;4.85;;;1.10;1.00;;;;;;6201290;23;20029;-88
2023/04/14 04:38:50;;;;;;;18.77;4.70;;;1.00;99.90;;;;;;6201434;23;20035;-89
2023/04/14 04:41:38;;;;;;;13.85;5.75;;;0.80;99.90;;;;;;6200860;23;20029;-90
2023/04/14 04:44:27;;;;;;;16.52;4.03;;;0.70;1.00;;;;;;6192463;23;20048;-90
2023/04/14 04:47:19;;;;;;;12.98;4.03;;;0.70;99.90;;;;;;6189957;23;20100;-90
2023/04/14 04:50:07;;;;;;;14.27;4.95;;;0.80;1.00;;;;;;6192225;23;20036;-89
2023/04/14 04:52:54;;;;;;;14.52;4.07;;;0.90;39.30;;;;;;6191736;23;20033;-89
2023/04/14 04:55:43;;;;;;;20.67;4.78;;;0.90;78.40;;;;;;6193483;23;20025;-85
2023/04/14 04:58:36;;;;;;;26.05;5.22;;;1.10;99.90;;;;;;6198069;23;20047;-89
2023/04/14 05:01:23;;;;;;;;;;;1.10;84.40;;;;;;6190995;23;20037;-92
2023/04/14 05:04:11;;;;;;;23.20;5.43;;;1.20;1.00;;;;;;6192410;23;19916;-90
2023/04/14 05:06:58;;;;;;;27.38;5.65;;;1.30;1.00;;;;;;6190188;23;20425;-87
2023/04/14 05:09:48;;;;;;;23.27;8.30;;;1.30;99.90;;;;;;6194249;23;20025;-87
2023/04/14 05:12:35;;;;;;;12.57;4.78;;;1.40;7.50;;;;;;6195919;23;20025;-89
2023/04/14 05:15:22;;;;;;;18.20;4.70;;;1.60;99.90;;;;;;6190412;23;20028;-90
2023/04/14 05:18:10;;;;;;;27.63;5.25;;;1.60;99.90;;;;;;6188547;23;20021;-90
2023/04/14 05:21:06;;;;;;;12.50;4.53;;;1.60;18.50;;;;;;6189024;23;20056;-90
2023/04/14 05:23:53;;;;;;;17.23;4.45;;;1.80;99.90;;;;;;6188994;23;20052;-90
2023/04/14 05:26:40;;;;;;;14.00;4.95;;;1.80;1.00;;;;;;6188541;23;20032;-90
2023/04/14 05:29:56;;;;;;;13.45;4.03;;;1.90;99.90;;;;;;6188502;23;20060;-90
2023/04/14 05:32:43;;;;;;;13.48;3.75;;;2.10;99.90;;;;;;6191286;23;20032;-92
2023/04/14 05:36:07;;;;;;;12.30;3.90;;;2.20;15.20;;;;;;6190833;23;20025;-93
2023/04/14 05:39:00;;;;;;;17.02;3.88;;;2.30;99.90;;;;;;6193525;23;20313;-92
2023/04/14 05:41:49;;;;;;;17.88;4.10;;;2.40;99.90;;;;;;6193777;23;20120;-91
2023/04/14 05:44:43;;;;;;;20.17;4.22;;;2.50;18.80;;;;;;6195970;23;20423;-90
2023/04/14 05:47:38;;;;;;;14.48;3.30;;;2.60;1.00;;;;;;6201263;23;20100;-90
2023/04/14 05:56:56;;;;;;;;;;;;;;;;;;;;;
2023/04/14 06:00:31;;;;;;;13.77;4.03;;;3.10;1.00;;;;;;6283760;22;20410;-91
2023/04/14 06:03:36;;;;;;;11.88;3.08;;;3.30;99.90;;;;;;6282143;22;20083;-92
2023/04/14 06:06:52;;;;;;;;;;;;;;;;;;;;;
2023/04/14 06:09:54;;;;;;;10.38;2.78;;;3.60;99.90;;;;;;6276674;22;20035;-92
2023/04/14 06:13:00;;;;;;;9.35;2.75;;;3.80;99.90;;;;;;6272325;22;20035;-89
2023/04/14 06:16:33;;;;;;;8.60;2.97;;;3.90;37.10;;;;;;6285118;22;20028;-92
2023/04/14 06:19:45;;;;;;;6.50;3.00;;;4.00;1.00;;;;;;6277860;22;20439;-89
2023/04/14 06:22:39;;;;;;;5.93;3.13;;;4.20;1.00;;;;;;6278148;22;20038;-90
2023/04/14 06:49:58;;;;;;;9.88;2.58;;;5.90;99.90;;;;;;6301979;22;20027;-91
2023/04/14 06:53:48;;;;;;;6.50;2.85;;;6.20;92.50;;;;;;6291009;22;20035;-92
2023/04/14 06:57:09;;;;;;;7.38;3.00;;;6.40;1.00;;;;;;6290064;22;20031;-93
2023/04/14 07:00:58;;;;;;;10.30;2.35;;;6.70;1.00;;;;;;6294265;22;20049;-94
2023/04/14 07:04:39;;;;;;;5.55;2.58;;;6.90;1.00;;;;;;6307908;22;20031;-91
2023/04/14 07:08:03;;;;;;;;;;;;;;;;;;;;;
2023/04/14 07:11:14;;;;;;;6.95;2.40;;;7.30;1.00;;;;;;6308922;22;20019;-91
2023/04/14 07:14:12;;;;;;;7.60;2.00;;;7.50;1.00;;;;;;6290630;22;20111;-88
2023/04/14 07:17:29;;;;;;;9.50;2.35;;;7.80;99.90;;;;;;6309376;22;20030;-89
2023/04/14 07:20:24;;;;;;;4.47;1.95;;;8.10;99.90;;;;;;6298982;22;20034;-90
2023/04/14 07:23:32;;;;;;;11.10;2.65;;;8.60;99.90;;;;;;6297970;22;20617;-89
2023/04/14 07:26:33;;;;;;;7.60;2.75;;;8.90;99.90;;;;;;6289440;22;20023;-88
2023/04/14 07:30:05;;;;;;;7.78;2.40;;;9.00;99.90;;;;;;6289852;22;20023;-93
2023/04/14 07:33:34;;;;;;;7.00;2.50;;;9.10;99.90;;;;;;6291559;22;20027;-92
2023/04/14 07:40:22;;;;;;;6.32;1.83;;;10.00;99.90;;;;;;6309910;22;20125;-90
2023/04/14 07:43:43;;;;;;;6.30;1.80;;;10.50;99.90;;;;;;6310573;22;20019;-92
2023/04/14 07:46:52;;;;;;;4.43;1.88;;;11.10;99.90;;;;;;6196904;23;20466;-90
2023/04/14 07:50:08;;;;;;;;;;;;;;;;;;;;;
2023/04/14 07:53:43;;;;;;;;;;;;;;;;;;;;;
2023/04/14 08:02:05;;;;;;;;;;;;;;;;;;;;;
2023/04/14 08:05:31;;;;;;;4.93;1.40;;;12.60;99.90;;;;;;6157495;23;20026;-89
2023/04/14 08:13:01;;;;;;;6.93;1.70;;;14.00;99.90;;;;;;6028430;23;20019;-91
2023/04/14 08:28:12;;;;;;;6.30;1.40;;;17.10;71.50;;;;;;6059326;23;20030;-93
2023/04/14 08:32:06;;;;;;;2.30;1.00;;;17.20;64.50;;;;;;6128236;23;20026;-91
2023/04/14 08:35:13;;;;;;;5.95;1.50;;;17.20;42.50;;;;;;6249676;22;20033;-90
2023/04/14 08:42:46;;;;;;;;;;;;;;;;;;;;;
2023/04/14 08:46:37;;;;;;;4.75;1.25;;;17.60;17.20;;;;;;6124483;23;20059;-90
2023/04/14 08:55:23;;;;;;;4.68;1.40;;;18.30;12.70;;;;;;6222760;23;20059;-90
2023/04/14 08:58:23;;;;;;;4.55;1.30;;;18.50;1.00;;;;;;6220097;23;20029;-87
2023/04/14 09:01:25;;;;;;;5.15;1.45;;;18.80;1.00;;;;;;6196209;23;20628;-89
2023/04/14 09:04:39;;;;;;;;;;;19.30;1.00;;;;;;6197595;23;20091;-90
2023/04/14 09:07:37;;;;;;;5.68;1.50;;;18.00;1.00;;;;;;6217909;23;20311;-89
2023/04/14 09:10:49;;;;;;;3.38;1.30;;;17.50;1.00;;;;;;6201684;23;20021;-89
2023/04/14 09:31:10;;;;;;;4.65;1.20;;;20.40;1.00;;;;;;6048091;23;20596;-92
2023/04/14 09:52:52;;;;;;;5.90;1.88;;;19.30;1.00;;;;;;5110107;27;1453367;-90
2023/04/14 09:55:49;;;;;;;8.30;1.75;;;15.70;1.00;;;;;;5140973;27;20069;-88
2023/04/14 09:58:41;;;;;;;8.02;1.90;;;16.70;1.00;;;;;;5155129;27;20084;-87
2023/04/14 10:01:30;;;;;;;;;;;18.50;1.00;;;;;;5157373;27;20116;-87
2023/04/14 10:04:41;;;;;;;7.40;1.73;;;19.70;1.00;;;;;;5152430;27;19949;-91
2023/04/14 10:07:45;;;;;;;8.13;2.13;;;20.40;1.00;;;;;;5142862;27;20048;-92
2023/04/14 10:10:33;;;;;;;3.90;1.02;;;20.80;1.00;;;;;;5158923;27;20086;-90
2023/04/14 10:13:30;;;;;;;6.22;1.35;;;21.80;1.00;;;;;;5155455;27;20041;-91
2023/04/14 10:16:21;;;;;;;3.70;1.30;;;22.70;1.00;;;;;;5121626;27;20050;-89
2023/04/14 10:19:10;;;;;;;8.63;1.73;;;20.90;1.00;;;;;;5152993;27;20070;-91
2023/04/14 10:22:00;;;;;;;3.47;1.20;;;20.50;1.00;;;;;;5141143;27;20118;-92
2023/04/14 10:25:35;;;;;;;7.32;1.50;;;19.50;1.00;;;;;;5136765;27;20068;-92
2023/04/14 10:28:55;;;;;;;5.75;1.50;;;19.70;1.00;;;;;;5140123;27;20039;-93
2023/04/14 10:32:12;;;;;;;3.55;1.30;;;20.70;1.00;;;;;;5129319;27;20135;-92
2023/04/14 10:35:12;;;;;;;3.70;1.27;;;19.50;1.00;;;;;;5112909;27;20051;-92
2023/04/14 10:38:03;;;;;;;4.53;1.48;;;18.30;1.00;;;;;;5146194;27;20038;-91
2023/04/14 10:40:52;;;;;;;4.20;1.27;;;18.90;1.00;;;;;;5147236;27;20047;-90
2023/04/14 10:43:42;;;;;;;4.93;1.73;;;18.80;1.00;;;;;;5140026;27;20068;-89
2023/04/14 10:46:42;;;;;;;5.00;1.60;;;18.80;1.00;;;;;;5135770;28;20132;-91
2023/04/14 10:49:34;;;;;;;4.25;1.10;;;19.00;1.00;;;;;;5150485;27;20047;-90
2023/04/14 10:52:24;;;;;;;5.28;1.40;;;19.30;1.00;;;;;;5144013;27;20043;-92
2023/04/14 10:55:14;;;;;;;5.43;1.42;;;19.20;1.00;;;;;;5135734;27;20044;-93
2023/04/14 10:58:05;;;;;;;4.07;1.30;;;20.60;1.00;;;;;;5152855;27;20046;-92
2023/04/14 11:00:55;;;;;;;5.05;1.58;;;19.50;1.00;;;;;;5156077;27;20027;-89
2023/04/14 11:03:46;;;;;;;4.75;1.33;;;18.70;1.00;;;;;;5150234;27;20042;-90
2023/04/14 11:06:52;;;;;;;;;;;17.90;1.00;;;;;;5133330;27;20043;-89
2023/04/14 11:09:41;;;;;;;4.50;1.30;;;17.30;1.00;;;;;;5125479;27;19963;-88
2023/04/14 11:12:28;;;;;;;5.80;1.58;;;15.70;1.00;;;;;;5134955;27;20039;-91
2023/04/14 11:15:16;;;;;;;4.95;1.27;;;15.10;1.00;;;;;;5143723;27;20054;-91
2023/04/14 11:18:16;;;;;;;4.50;1.50;;;15.20;1.00;;;;;;5139172;27;20039;-92
2023/04/14 11:21:31;;;;;;;8.65;1.40;;;17.30;1.00;;;;;;5132358;27;20136;-93
2023/04/14 11:24:24;;;;;;;4.97;1.40;;;19.90;1.00;;;;;;5131289;27;20100;-91
2023/04/14 11:27:12;;;;;;;3.13;1.30;;;19.80;1.00;;;;;;5127823;27;20039;-91
2023/04/14 11:30:00;;;;;;;4.72;1.33;;;19.90;1.00;;;;;;5142617;27;20050;-91
2023/04/14 11:33:06;;;;;;;5.07;1.50;;;20.10;1.00;;;;;;5127217;27;20043;-90
2023/04/14 11:36:22;;;;;;;6.10;1.20;;;18.90;1.00;;;;;;5108064;27;20054;-92
2023/04/14 11:39:24;;;;;;;5.45;1.35;;;18.60;1.00;;;;;;5110391;27;20140;-93
2023/04/14 11:42:16;;;;;;;5.95;1.15;;;18.80;1.00;;;;;;5111293;27;20040;-92
2023/04/14 11:49:14;;;;;;;4.65;1.05;;;17.20;1.00;;;;;;5137587;27;20027;-93
2023/04/14 11:52:24;;;;;;;4.28;1.33;;;19.40;1.00;;;;;;5113064;27;20134;-90
2023/04/14 11:55:13;;;;;;;5.72;1.20;;;21.00;1.00;;;;;;5116681;27;20509;-90
2023/04/14 11:58:26;;;;;;;5.70;1.27;;;22.10;1.00;;;;;;5131429;27;20083;-90
2023/04/14 12:01:23;;;;;;;3.40;1.27;;;21.00;1.00;;;;;;5132232;27;20046;-90
2023/04/14 12:04:11;;;;;;;4.03;1.15;;;19.70;1.00;;;;;;5121662;27;20381;-89
2023/04/14 12:06:59;;;;;;;7.60;1.33;;;19.30;1.00;;;;;;5111176;27;20047;-90
2023/04/14 12:09:49;;;;;;;5.22;1.50;;;19.30;1.00;;;;;;5125783;27;20049;-93
2023/04/14 12:12:41;;;;;;;3.03;1.30;;;20.00;1.00;;;;;;5129328;27;20058;-91
2023/04/14 12:15:35;;;;;;;3.17;1.38;;;20.70;1.00;;;;;;5112377;28;20055;-91
2023/04/14 12:18:23;;;;;;;2.72;1.20;;;19.70;1.00;;;;;;5117807;27;20440;-89
2023/04/14 12:21:18;;;;;;;4.13;1.50;;;20.30;1.00;;;;;;5131127;27;20050;-91
2023/04/14 12:24:05;;;;;;;2.55;1.33;;;20.90;1.00;;;;;;5114238;27;20039;-92
2023/04/14 12:26:55;;;;;;;3.55;1.25;;;20.70;1.00;;;;;;5133664;27;20058;-92
2023/04/14 12:29:43;;;;;;;4.85;1.20;;;22.30;1.00;;;;;;5111153;27;20058;-91
2023/04/14 12:32:42;;;;;;;3.60;1.20;;;23.50;1.00;;;;;;5128239;27;20456;-89
2023/04/14 12:35:33;;;;;;;4.63;1.30;;;24.50;1.00;;;;;;5130003;27;20048;-92
2023/04/14 12:38:28;;;;;;;2.65;1.02;;;22.50;1.00;;;;;;5122437;27;20160;-93
2023/04/14 12:41:25;;;;;;;3.40;1.13;;;22.20;1.00;;;;;;5135095;27;20082;-92
2023/04/14 12:44:19;;;;;;;4.80;1.23;;;24.00;1.00;;;;;;5138825;27;20035;-92
2023/04/14 12:47:07;;;;;;;3.40;1.30;;;22.80;1.00;;;;;;5107405;28;20181;-92
2023/04/14 12:49:55;;;;;;;4.32;1.10;;;21.80;1.00;;;;;;5108536;28;20050;-92
2023/04/14 12:52:43;;;;;;;5.20;1.45;;;20.40;1.00;;;;;;5104264;28;20377;-92
2023/04/14 12:55:37;;;;;;;6.72;1.65;;;20.90;1.00;;;;;;5122164;27;20108;-90
2023/04/14 12:58:28;;;;;;;4.57;1.48;;;21.50;1.00;;;;;;5126770;27;20046;-93
2023/04/14 13:01:18;;;;;;;5.57;1.35;;;23.20;1.00;;;;;;5136007;27;20039;-93
2023/04/14 13:04:06;;;;;;;6.35;1.60;;;24.20;1.00;;;;;;5137691;27;20031;-89
2023/04/14 13:06:54;;;;;;;3.15;0.95;;;23.30;1.00;;;;;;5157999;27;20027;-88
2023/04/14 13:09:42;;;;;;;5.45;1.25;;;21.20;1.00;;;;;;5129129;27;20054;-91
2023/04/14 13:12:30;;;;;;;3.38;1.30;;;19.90;1.00;;;;;;5145577;27;20038;-89
2023/04/14 13:15:17;;;;;;;4.57;1.30;;;18.30;1.00;;;;;;5155068;27;20044;-89
2023/04/14 13:18:26;;;;;;;5.18;1.30;;;17.40;1.00;;;;;;5141309;27;20040;-90
2023/04/14 13:21:28;;;;;;;3.08;1.10;;;16.40;1.00;;;;;;5147151;27;20096;-89
2023/04/14 13:24:15;;;;;;;3.90;1.50;;;16.20;1.00;;;;;;5141241;27;20096;-91
2023/04/14 13:27:03;;;;;;;5.72;1.52;;;16.30;1.00;;;;;;5120058;27;20046;-93
2023/04/14 13:29:53;;;;;;;4.22;1.45;;;16.00;1.00;;;;;;5123453;27;20053;-93
2023/04/14 13:32:41;;;;;;;3.65;1.30;;;15.70;1.00;;;;;;5111018;28;20079;-92
2023/04/14 13:35:31;;;;;;;4.43;1.55;;;15.80;1.00;;;;;;5122580;27;20047;-91
2023/04/14 13:38:19;;;;;;;2.92;1.20;;;15.60;1.00;;;;;;5121956;28;20047;-91
2023/04/14 13:41:14;;;;;;;6.93;1.77;;;15.20;1.00;;;;;;5109627;28;20305;-92
2023/04/14 13:44:04;;;;;;;3.63;1.42;;;15.00;1.00;;;;;;5135802;28;20050;-90
2023/04/14 13:46:52;;;;;;;3.13;1.10;;;14.80;1.00;;;;;;5117452;28;20043;-91
2023/04/14 13:49:39;;;;;;;5.40;1.30;;;14.60;1.00;;;;;;5123771;28;20043;-93
2023/04/14 13:52:27;;;;;;;4.68;1.58;;;14.50;1.00;;;;;;5121092;28;20176;-94
2023/04/14 13:55:14;;;;;;;2.55;1.23;;;14.20;1.00;;;;;;5120462;28;20043;-91
2023/04/14 13:58:02;;;;;;;8.00;1.85;;;13.90;1.00;;;;;;5122264;28;20562;-91
2023/04/14 14:00:50;;;;;;;6.65;1.70;;;13.70;1.00;;;;;;5126804;28;20087;-92
2023/04/14 14:03:49;;;;;;;6.10;1.50;;;13.50;1.00;;;;;;5117310;28;20461;-92
2023/04/14 14:06:37;;;;;;;6.38;1.33;;;13.30;1.00;;;;;;5119184;28;20066;-92
2023/04/14 14:09:24;;;;;;;2.13;1.38;;;13.30;1.00;;;;;;5134087;28;20039;-91
2023/04/14 14:12:12;;;;;;;6.88;1.60;;;13.60;1.00;;;;;;5124194;28;20051;-91
2023/04/14 14:15:18;;;;;;;4.55;1.80;;;15.00;1.00;;;;;;5129066;28;20058;-92
2023/04/14 14:18:15;;;;;;;3.22;1.30;;;15.80;1.00;;;;;;5126894;27;20356;-88
2023/04/14 14:21:05;;;;;;;3.83;1.30;;;15.30;1.00;;;;;;5136839;27;20131;-91
2023/04/14 14:23:56;;;;;;;6.07;1.25;;;15.00;1.00;;;;;;5130590;28;20050;-92
2023/04/14 14:26:43;;;;;;;5.18;1.20;;;15.70;1.00;;;;;;5135346;27;20090;-92
2023/04/14 14:29:31;;;;;;;3.63;1.40;;;16.30;1.00;;;;;;5140665;27;20046;-92
2023/04/14 14:32:21;;;;;;;3.50;1.10;;;16.50;1.00;;;;;;5112431;27;20157;-92
2023/04/14 14:35:09;;;;;;;2.53;1.10;;;16.30;1.00;;;;;;5122915;27;20122;-92
2023/04/14 14:38:05;;;;;;;4.65;1.60;;;16.00;1.00;;;;;;5136066;27;20069;-92
2023/04/14 14:40:55;;;;;;;4.32;1.17;;;15.40;1.00;;;;;;5138850;27;20108;-93
2023/04/14 14:43:44;;;;;;;4.90;1.40;;;14.80;1.00;;;;;;5130436;27;20050;-93
2023/04/14 14:46:41;;;;;;;4.75;1.20;;;14.00;1.00;;;;;;5127508;27;20398;-91
2023/04/14 14:49:41;;;;;;;4.20;1.55;;;13.50;1.00;;;;;;5142938;27;20035;-92
2023/04/14 14:52:45;;;;;;;7.82;1.35;;;13.20;1.00;;;;;;5126837;27;20039;-91
2023/04/14 14:55:33;;;;;;;6.20;1.80;;;13.10;1.00;;;;;;5137523;27;20055;-93
2023/04/14 14:58:32;;;;;;;8.68;1.65;;;13.10;1.00;;;;;;5117303;27;20134;-92
2023/04/14 15:01:26;;;;;;;3.97;1.23;;;13.00;1.00;;;;;;5120711;27;20396;-93
2023/04/14 15:04:18;;;;;;;7.90;1.67;;;13.00;1.00;;;;;;5118368;27;20051;-94
2023/04/14 15:07:12;;;;;;;5.93;1.60;;;12.90;1.00;;;;;;5126715;27;20050;-93
2023/04/14 15:10:02;;;;;;;9.10;1.40;;;12.90;1.00;;;;;;5124747;27;20047;-92
2023/04/14 15:12:50;;;;;;;4.07;1.42;;;12.90;1.00;;;;;;5125960;27;20051;-91
2023/04/14 15:15:37;;;;;;;7.97;1.80;;;12.80;1.00;;;;;;5132191;27;20120;-90
2023/04/14 15:22:15;;;;;;;6.72;1.58;;;12.90;1.00;;;;;;5136522;27;20035;-92
2023/04/14 15:25:04;;;;;;;4.65;1.50;;;12.80;1.00;;;;;;5125982;27;20226;-93
2023/04/14 15:27:55;;;;;;;4.28;1.30;;;12.80;1.00;;;;;;5118967;27;20063;-92
2023/04/14 15:30:45;;;;;;;1.83;1.00;;;12.80;1.00;;;;;;5142190;27;20057;-91
2023/04/14 15:33:49;;;;;;;;;;;;;;;;;;;;;
2023/04/14 15:37:01;;;;;;;3.85;1.10;;;12.70;1.00;;;;;;5138813;27;20081;-92
2023/04/14 15:40:09;;;;;;;2.05;1.13;;;12.60;1.00;;;;;;5118495;27;20280;-95
2023/04/14 15:43:00;;;;;;;3.53;1.30;;;12.60;1.00;;;;;;5135285;27;20183;-91
2023/04/14 15:45:52;;;;;;;7.70;1.58;;;12.50;1.00;;;;;;5127497;27;20475;-92
2023/04/14 15:48:45;;;;;;;3.00;1.35;;;12.40;1.00;;;;;;5126267;27;20044;-92
2023/04/14 15:52:23;;;;;;;3.88;1.65;;;12.30;1.00;;;;;;5121582;27;20135;-94
2023/04/14 15:55:18;;;;;;;3.45;1.35;;;12.20;1.00;;;;;;5144106;27;20047;-93
2023/04/14 15:58:18;;;;;;;3.30;1.30;;;12.20;1.00;;;;;;5122405;27;20043;-92
2023/04/14 16:01:29;;;;;;;4.57;1.50;;;12.20;1.00;;;;;;5125704;27;20035;-92
2023/04/14 16:04:40;;;;;;;5.40;1.90;;;12.10;1.00;;;;;;5119260;27;20477;-93
2023/04/14 16:07:39;;;;;;;9.27;2.95;;;12.20;1.00;;;;;;5119669;27;20035;-93
2023/04/14 16:10:58;;;;;;;3.63;1.60;;;12.20;1.00;;;;;;5121206;27;20107;-93
2023/04/14 16:13:56;;;;;;;8.55;1.77;;;12.10;1.00;;;;;;5120410;28;20071;-93
2023/04/14 16:16:55;;;;;;;;;;;;;;;;;;;;;
2023/04/14 16:19:56;;;;;;;5.90;1.63;;;12.20;1.00;;;;;;5143187;27;20063;-93
2023/04/14 16:22:49;;;;;;;6.30;1.40;;;12.10;1.00;;;;;;5135401;27;20377;-93
2023/04/14 16:25:42;;;;;;;4.50;1.52;;;12.10;1.00;;;;;;5123109;27;20051;-92
2023/04/14 16:28:34;;;;;;;5.20;1.83;;;12.20;1.00;;;;;;5142581;27;20039;-92
2023/04/14 16:31:39;;;;;;;8.60;4.63;;;12.40;1.00;;;;;;5142709;27;20088;-92
2023/04/14 16:34:41;;;;;;;6.88;2.38;;;12.90;1.00;;;;;;5141500;27;20046;-92
2023/04/14 16:37:30;;;;;;;7.32;2.25;;;13.60;1.00;;;;;;5137834;27;20054;-93
2023/04/14 16:40:21;;;;;;;3.85;1.40;;;13.80;1.00;;;;;;5126365;27;20050;-92
2023/04/14 16:43:23;;;;;;;7.88;2.30;;;13.90;1.00;;;;;;5119560;27;20054;-91
2023/04/14 16:46:31;;;;;;;5.97;1.63;;;13.50;1.00;;;;;;5112459;28;20491;-92
2023/04/14 16:49:25;;;;;;;5.00;1.77;;;13.30;1.00;;;;;;5123980;27;20076;-93
2023/04/14 16:52:29;;;;;;;3.80;1.65;;;13.00;1.00;;;;;;5128549;27;20057;-92
2023/04/14 16:55:19;;;;;;;5.13;1.50;;;12.90;1.00;;;;;;5132876;27;20043;-92
2023/04/14 16:58:08;;;;;;;6.10;2.08;;;12.70;1.00;;;;;;5137560;27;20035;-91
2023/04/14 17:00:59;;;;;;;4.45;1.70;;;12.60;1.00;;;;;;5136324;27;20141;-93
2023/04/14 17:03:50;;;;;;;4.70;1.40;;;12.50;1.00;;;;;;5142827;27;20043;-92
2023/04/14 17:06:45;;;;;;;7.10;1.83;;;12.30;1.00;;;;;;5131092;27;20028;-92
2023/04/14 17:09:33;;;;;;;3.85;1.50;;;12.20;1.00;;;;;;5128585;28;20055;-91
2023/04/14 17:16:28;;;;;;;6.60;1.80;;;12.00;1.00;;;;;;5134488;27;20020;-92
2023/04/14 17:19:45;;;;;;;3.20;1.52;;;11.90;1.00;;;;;;5148167;27;20039;-92
2023/04/14 17:22:50;;;;;;;5.05;1.88;;;11.90;1.00;;;;;;5135826;27;20035;-94
2023/04/14 17:25:52;;;;;;;4.22;1.40;;;11.80;1.00;;;;;;5148993;27;20061;-94
2023/04/14 17:28:57;;;;;;;8.35;1.63;;;11.80;1.00;;;;;;5138309;27;20053;-93
2023/04/14 17:31:50;;;;;;;3.53;1.90;;;11.70;1.00;;;;;;5136058;27;20054;-92
2023/04/14 17:34:38;;;;;;;4.35;1.80;;;11.70;1.00;;;;;;5136122;28;20031;-91